Time;durP1;ratioP1;P1;durP2;ratioP2;P2;SDS_P1;SDS_P2;PMS_P1;PMS_P2;Temp;Humidity;BMP_temperature;BMP_pressure;BME280_temperature;BME280_humidity;BME280_pressure;Samples;Min_cycle;Max_cycle;Signal;HPM_P1;HPM_P2
2022/01/04 00:00:53;;;;;;;20.02;6.03;;;;;;;8.94;100.00;100243.00;5100065;28;20040;-75
2022/01/04 00:03:19;;;;;;;23.83;6.32;;;;;;;8.94;100.00;100235.16;5101995;28;20023;-75
2022/01/04 00:05:44;;;;;;;20.73;6.10;;;;;;;8.89;100.00;100231.56;5090385;28;20382;-76
2022/01/04 00:08:12;;;;;;;21.42;5.97;;;;;;;8.89;100.00;100228.94;5084608;28;20594;-75
2022/01/04 00:10:38;;;;;;;22.42;5.72;;;;;;;8.85;100.00;100219.28;5086209;28;20522;-75
2022/01/04 00:15:48;;;;;;;23.85;6.97;;;;;;;8.92;100.00;100208.00;5112022;28;20484;-75
2022/01/04 00:18:13;;;;;;;21.10;6.32;;;;;;;8.93;100.00;100209.75;5090535;28;21977;-75
2022/01/04 00:20:39;;;;;;;27.73;7.07;;;;;;;8.92;100.00;100189.63;5113126;28;20024;-75
2022/01/04 00:23:05;;;;;;;21.10;6.70;;;;;;;8.87;100.00;100193.06;5101404;28;20016;-75
2022/01/04 00:25:31;;;;;;;23.13;7.68;;;;;;;8.91;100.00;100179.09;5091839;28;20379;-76
2022/01/04 00:27:58;;;;;;;20.67;7.20;;;;;;;8.84;100.00;100177.28;5106988;28;20030;-75
2022/01/04 00:30:28;;;;;;;31.48;8.35;;;;;;;8.83;100.00;100172.88;5108915;28;20102;-75
2022/01/04 00:32:54;;;;;;;27.70;7.78;;;;;;;8.80;100.00;100160.59;5113604;28;20038;-76
2022/01/04 00:35:19;;;;;;;22.83;7.50;;;;;;;8.88;100.00;100163.34;5104452;28;20027;-75
2022/01/04 00:37:44;;;;;;;29.55;8.45;;;;;;;8.83;100.00;100159.78;5082698;28;20024;-75
2022/01/04 00:40:10;;;;;;;24.52;9.20;;;;;;;8.86;100.00;100159.84;5102729;28;20028;-75
2022/01/04 00:42:35;;;;;;;26.40;8.85;;;;;;;8.85;100.00;100151.06;5092830;28;20034;-75
2022/01/04 00:45:00;;;;;;;20.50;7.78;;;;;;;8.80;100.00;100146.63;5082401;28;20128;-75
2022/01/04 00:47:39;;;;;;;23.38;9.35;;;;;;;8.76;100.00;100143.97;5101665;28;20122;-75
2022/01/04 00:50:05;;;;;;;25.55;8.50;;;;;;;8.74;100.00;100139.56;5109456;28;20062;-75
2022/01/04 00:52:30;;;;;;;21.25;7.78;;;;;;;8.80;100.00;100146.63;5103979;28;20035;-75
2022/01/04 00:54:56;;;;;;;20.05;8.45;;;;;;;8.76;100.00;100136.09;5108686;28;20016;-74
2022/01/04 00:57:21;;;;;;;22.77;8.95;;;;;;;8.76;100.00;100133.47;5098938;28;20031;-75
2022/01/04 00:59:46;;;;;;;23.63;7.75;;;;;;;8.74;100.00;100129.06;5111218;28;20026;-75
2022/01/04 01:02:12;;;;;;;22.65;8.88;;;;;;;8.73;100.00;100128.16;5086020;28;20043;-75
2022/01/04 01:04:37;;;;;;;18.80;7.75;;;;;;;8.74;100.00;100122.06;5102948;28;20035;-76
2022/01/04 01:07:02;;;;;;;26.08;8.52;;;;;;;8.72;100.00;100120.28;5089436;28;20392;-75
2022/01/04 01:09:32;;;;;;;27.63;8.95;;;;;;;8.70;100.00;100115.03;5106536;28;20390;-75
2022/01/04 01:11:57;;;;;;;21.23;9.40;;;;;;;8.70;100.00;100115.03;5110222;28;20398;-75
2022/01/04 01:14:23;;;;;;;25.08;8.68;;;;;;;8.70;100.00;100112.41;5104555;28;20243;-75
2022/01/04 01:16:48;;;;;;;26.10;9.27;;;;;;;8.72;100.00;100110.69;5093201;28;20023;-75
2022/01/04 01:19:13;;;;;;;18.27;8.63;;;;;;;8.71;100.00;100110.69;5104297;28;20040;-76
2022/01/04 01:21:39;;;;;;;21.67;9.88;;;;;;;8.66;100.00;100107.97;5087866;28;20035;-76
2022/01/04 01:24:04;;;;;;;23.10;9.25;;;;;;;8.68;100.00;100108.91;5109171;28;20451;-76
2022/01/04 01:26:30;;;;;;;25.00;9.15;;;;;;;8.64;100.00;100106.19;5108304;28;20051;-75
2022/01/04 01:28:56;;;;;;;24.33;9.73;;;;;;;8.62;100.00;100105.31;5104874;28;20034;-75
2022/01/04 01:31:21;;;;;;;19.42;9.65;;;;;;;8.59;100.00;100104.41;5100274;28;20085;-76
2022/01/04 01:33:47;;;;;;;25.98;12.20;;;;;;;8.63;100.00;100097.47;5091006;28;20092;-75
2022/01/04 01:36:12;;;;;;;17.80;8.60;;;;;;;8.65;100.00;100094.84;5084322;28;20372;-75
2022/01/04 01:38:37;;;;;;;28.80;11.10;;;;;;;8.63;100.00;100092.22;5094323;28;20058;-76
2022/01/04 01:41:03;;;;;;;20.55;10.75;;;;;;;8.66;100.00;100100.13;5092026;28;20127;-75
2022/01/04 01:43:29;;;;;;;26.83;10.80;;;;;;;8.67;100.00;100094.00;5086604;28;20039;-75
2022/01/04 01:45:55;;;;;;;24.08;10.25;;;;;;;8.67;100.00;100091.41;5083049;28;20062;-75
2022/01/04 01:48:20;;;;;;;24.67;10.35;;;;;;;8.68;100.00;100076.53;5102095;28;20058;-75
2022/01/04 01:50:46;;;;;;;23.17;9.85;;;;;;;8.69;100.00;100073.91;5113754;27;20039;-75
2022/01/04 01:53:11;;;;;;;24.48;10.10;;;;;;;8.69;100.00;100066.03;5109077;28;20028;-76
2022/01/04 01:55:37;;;;;;;21.63;9.95;;;;;;;8.70;100.00;100064.31;5104210;28;20071;-76
2022/01/04 01:58:02;;;;;;;22.35;10.50;;;;;;;8.66;100.00;100060.78;5079357;28;20031;-76
2022/01/04 02:00:29;;;;;;;22.83;10.52;;;;;;;8.69;100.00;100068.66;5097111;28;20487;-76
2022/01/04 02:02:55;;;;;;;26.17;11.25;;;;;;;8.64;100.00;100054.66;5101142;28;20483;-75
2022/01/04 02:05:21;;;;;;;24.58;11.00;;;;;;;8.64;100.00;100054.66;5107599;28;20039;-75
2022/01/04 02:07:47;;;;;;;32.75;10.93;;;;;;;8.68;100.00;100051.19;5080202;28;20036;-75
2022/01/04 02:10:13;;;;;;;22.90;10.18;;;;;;;8.63;100.00;100031.91;5089224;28;20030;-75
2022/01/04 02:12:41;;;;;;;23.25;10.20;;;;;;;8.64;100.00;100040.63;5108600;28;20112;-76
2022/01/04 02:15:12;;;;;;;22.73;10.65;;;;;;;8.61;100.00;100044.09;5106823;28;20024;-76
2022/01/04 02:17:38;;;;;;;24.30;10.68;;;;;;;8.60;100.00;100042.38;5101803;28;20035;-75
2022/01/04 02:20:05;;;;;;;18.98;10.18;;;;;;;8.69;100.00;100031.94;5080934;28;20035;-74
2022/01/04 02:22:32;;;;;;;19.40;11.02;;;;;;;8.63;100.00;100031.91;5087128;28;20101;-75
2022/01/04 02:24:58;;;;;;;19.90;9.90;;;;;;;8.60;100.00;100031.88;5088569;28;20030;-75
2022/01/04 02:27:23;;;;;;;25.77;10.25;;;;;;;8.63;100.00;100026.66;5088467;28;20028;-76
2022/01/04 02:29:50;;;;;;;22.23;9.40;;;;;;;8.60;100.00;100016.13;5085875;28;20016;-74
2022/01/04 02:32:15;;;;;;;21.95;10.27;;;;;;;8.62;100.00;100016.16;5092971;28;20498;-75
2022/01/04 02:34:50;;;;;;;20.98;9.95;;;;;;;8.63;100.00;100016.16;5100992;28;20037;-75
2022/01/04 02:37:19;;;;;;;22.67;8.98;;;;;;;8.67;100.00;99999.59;5105444;28;20479;-75
2022/01/04 02:39:45;;;;;;;17.55;9.15;;;;;;;8.55;100.00;100002.09;5104841;28;20071;-75
2022/01/04 02:42:10;;;;;;;21.67;9.80;;;;;;;8.54;100.00;99992.47;5100332;28;20047;-75
2022/01/04 02:44:35;;;;;;;29.50;9.32;;;;;;;8.56;100.00;99995.97;5102566;28;20054;-75
2022/01/04 02:47:01;;;;;;;21.85;8.60;;;;;;;8.57;100.00;99984.63;5093473;28;20032;-75
2022/01/04 02:49:26;;;;;;;16.85;8.00;;;;;;;8.55;100.00;99986.34;5087750;28;20049;-75
2022/01/04 02:51:52;;;;;;;25.00;8.85;;;;;;;8.49;100.00;99992.41;5109168;28;20496;-75
2022/01/04 02:54:17;;;;;;;23.25;8.60;;;;;;;8.48;100.00;99974.03;5103866;28;20487;-75
2022/01/04 02:56:43;;;;;;;18.05;8.57;;;;;;;8.47;100.00;99983.63;5094744;28;20031;-75
2022/01/04 02:59:08;;;;;;;23.08;8.43;;;;;;;8.50;100.00;99980.19;5101341;28;20024;-75
2022/01/04 03:01:33;;;;;;;25.60;9.93;;;;;;;8.51;100.00;99974.94;5101035;28;20070;-75
2022/01/04 03:03:59;;;;;;;18.20;9.00;;;;;;;8.51;100.00;99969.69;5097683;28;20024;-76
2022/01/04 03:06:25;;;;;;;26.13;10.05;;;;;;;8.48;100.00;99963.53;5087134;28;20039;-75
2022/01/04 03:08:50;;;;;;;23.10;8.52;;;;;;;8.51;100.00;99953.09;5081759;28;20430;-75
2022/01/04 03:11:16;;;;;;;20.67;9.88;;;;;;;8.47;100.00;99956.56;5103632;28;20391;-75
2022/01/04 03:13:41;;;;;;;24.17;10.35;;;;;;;8.44;100.00;99953.00;5091548;28;20031;-75
2022/01/04 03:16:07;;;;;;;29.83;10.80;;;;;;;8.39;100.00;99944.19;5088796;28;20039;-76
2022/01/04 03:18:32;;;;;;;22.17;9.98;;;;;;;8.46;100.00;99944.31;5104622;28;20043;-75
2022/01/04 03:20:58;;;;;;;27.90;10.77;;;;;;;8.47;100.00;99935.59;5092464;28;20051;-75
2022/01/04 03:23:23;;;;;;;25.05;10.30;;;;;;;8.48;100.00;99926.81;5088616;28;20482;-74
2022/01/04 03:25:49;;;;;;;20.42;10.43;;;;;;;8.44;100.00;99923.28;5097443;28;20023;-75
2022/01/04 03:28:16;;;;;;;26.92;11.07;;;;;;;8.42;100.00;99911.88;5080779;28;20042;-75
2022/01/04 03:30:42;;;;;;;29.42;11.60;;;;;;;8.40;100.00;99916.25;5106169;28;20113;-75
2022/01/04 03:33:07;;;;;;;29.08;11.88;;;;;;;8.40;100.00;99909.25;5106871;28;20147;-75
2022/01/04 03:35:32;;;;;;;26.45;11.65;;;;;;;8.42;100.00;99907.53;5082827;28;20020;-75
2022/01/04 03:37:58;;;;;;;32.63;12.20;;;;;;;8.43;100.00;99893.53;5085580;28;20372;-75
2022/01/04 03:40:23;;;;;;;29.70;12.82;;;;;;;8.45;100.00;99891.00;5091917;28;20019;-75
2022/01/04 03:42:48;;;;;;;30.77;13.27;;;;;;;8.49;100.00;99879.69;5107413;28;20502;-75
2022/01/04 03:45:14;;;;;;;28.13;13.43;;;;;;;8.49;100.00;99881.41;5102906;28;20043;-75
2022/01/04 03:47:39;;;;;;;23.30;13.07;;;;;;;8.43;100.00;99882.19;5107061;28;20059;-75
2022/01/04 03:50:05;;;;;;;35.25;12.93;;;;;;;8.38;100.00;99884.78;5085226;28;20092;-75
2022/01/04 03:52:31;;;;;;;24.20;13.18;;;;;;;8.40;100.00;99880.41;5107096;28;20080;-75
2022/01/04 03:54:56;;;;;;;31.02;13.88;;;;;;;8.39;100.00;99870.78;5100790;28;20052;-76
2022/01/04 03:57:21;;;;;;;25.25;12.98;;;;;;;8.37;100.00;99859.44;5086631;28;20079;-75
2022/01/04 03:59:47;;;;;;;25.10;13.32;;;;;;;8.38;100.00;99857.66;5101155;28;20163;-75
2022/01/04 04:02:12;;;;;;;32.90;13.85;;;;;;;8.38;100.00;99853.31;5090292;28;20034;-74
2022/01/04 04:04:38;;;;;;;25.45;12.75;;;;;;;8.39;100.00;99854.19;5116368;28;20031;-74
2022/01/04 04:07:03;;;;;;;22.70;12.02;;;;;;;8.34;100.00;99861.13;5082242;28;20031;-75
2022/01/04 04:09:34;;;;;;;29.25;12.73;;;;;;;8.38;100.00;99857.66;5103965;28;20365;-75
2022/01/04 04:12:00;;;;;;;27.42;14.50;;;;;;;8.32;100.00;99842.78;5083758;28;20034;-75
2022/01/04 04:14:25;;;;;;;28.17;13.68;;;;;;;8.35;100.00;99847.16;5090377;28;20028;-76
2022/01/04 04:16:50;;;;;;;25.90;13.30;;;;;;;8.32;100.00;99844.53;5101110;28;20055;-75
2022/01/04 04:19:16;;;;;;;28.80;13.80;;;;;;;8.36;100.00;99848.94;5091659;28;20118;-75
2022/01/04 04:21:41;;;;;;;29.05;12.80;;;;;;;8.35;100.00;99837.53;5104716;28;20065;-75
2022/01/04 04:24:06;;;;;;;24.98;12.90;;;;;;;8.33;100.00;99846.25;5088754;28;20096;-74
2022/01/04 04:26:32;;;;;;;23.10;13.63;;;;;;;8.32;100.00;99831.41;5106499;28;20088;-74
2022/01/04 04:28:57;;;;;;;25.88;12.77;;;;;;;8.36;100.00;99834.06;5087862;28;20031;-75
2022/01/04 04:31:22;;;;;;;27.00;13.60;;;;;;;8.31;100.00;99833.13;5105734;28;20096;-75
2022/01/04 04:33:48;;;;;;;23.88;13.57;;;;;;;8.30;100.00;99828.75;5093412;28;20520;-74
2022/01/04 04:36:13;;;;;;;19.45;12.93;;;;;;;8.28;100.00;99814.78;5081995;28;20325;-75
2022/01/04 04:38:38;;;;;;;22.05;13.38;;;;;;;8.26;100.00;99816.50;5083537;28;20089;-74
2022/01/04 04:41:04;;;;;;;23.10;12.50;;;;;;;8.25;100.00;99809.50;5088599;28;20114;-75
2022/01/04 04:43:29;;;;;;;28.75;13.75;;;;;;;8.25;100.00;99814.75;5113915;28;20047;-74
2022/01/04 04:45:55;;;;;;;24.95;12.70;;;;;;;8.23;100.00;99817.38;5082726;28;20039;-74
2022/01/04 04:48:20;;;;;;;28.05;12.73;;;;;;;8.21;100.00;99812.97;5091990;28;20063;-74
2022/01/04 04:50:45;;;;;;;23.17;12.95;;;;;;;8.18;100.00;99812.91;5085889;28;20364;-77
2022/01/04 04:53:11;;;;;;;20.30;12.43;;;;;;;8.15;100.00;99810.28;5100634;28;20042;-74
2022/01/04 04:55:36;;;;;;;27.40;12.90;;;;;;;8.18;100.00;99797.19;5108851;28;20027;-74
2022/01/04 04:58:02;;;;;;;26.65;13.60;;;;;;;8.20;100.00;99805.97;5108158;28;20180;-75
2022/01/04 05:00:27;;;;;;;28.88;13.38;;;;;;;8.25;100.00;99801.66;5081546;28;20467;-75
2022/01/04 05:02:53;;;;;;;27.02;14.27;;;;;;;8.23;100.00;99801.66;5112232;28;20516;-74
2022/01/04 05:05:18;;;;;;;24.40;13.43;;;;;;;8.24;100.00;99807.75;5101100;28;20027;-75
2022/01/04 05:07:43;;;;;;;31.80;14.02;;;;;;;8.26;100.00;99790.28;5102658;28;20111;-75
2022/01/04 05:10:09;;;;;;;20.00;11.82;;;;;;;8.30;100.00;99786.81;5111265;28;20015;-74
2022/01/04 05:12:35;;;;;;;19.45;12.30;;;;;;;8.26;100.00;99782.41;5105604;28;20035;-74
2022/01/04 05:15:02;;;;;;;21.33;11.73;;;;;;;8.16;100.00;99777.97;5104581;28;20035;-76
2022/01/04 05:17:27;;;;;;;21.77;12.23;;;;;;;8.16;100.00;99777.97;5087687;28;20039;-75
2022/01/04 05:19:53;;;;;;;21.92;12.13;;;;;;;8.17;100.00;99782.38;5106313;28;20027;-75
2022/01/04 05:22:18;;;;;;;23.33;11.57;;;;;;;8.19;100.00;99783.25;5110065;28;20043;-75
2022/01/04 05:24:44;;;;;;;23.98;12.00;;;;;;;8.15;100.00;99776.22;5086532;28;20034;-75
2022/01/04 05:27:09;;;;;;;22.30;12.82;;;;;;;8.16;100.00;99794.56;5100134;28;20031;-75
2022/01/04 05:29:34;;;;;;;23.50;12.00;;;;;;;8.13;100.00;99783.19;5109981;28;20494;-76
2022/01/04 05:32:00;;;;;;;22.60;11.93;;;;;;;8.14;100.00;99777.06;5104876;28;20032;-75
2022/01/04 05:34:26;;;;;;;24.25;12.18;;;;;;;8.12;100.00;99770.94;5088857;28;20391;-75
2022/01/04 05:36:51;;;;;;;21.08;12.43;;;;;;;8.12;100.00;99769.19;5084203;28;20035;-76
2022/01/04 05:39:17;;;;;;;20.33;12.18;;;;;;;8.14;100.00;99770.09;5090877;28;20036;-75
2022/01/04 05:41:43;;;;;;;24.40;12.88;;;;;;;8.13;100.00;99762.25;5087300;28;20040;-74
2022/01/04 05:44:08;;;;;;;17.42;11.43;;;;;;;8.14;100.00;99769.22;5103155;28;20042;-75
2022/01/04 05:46:33;;;;;;;27.80;11.93;;;;;;;8.17;100.00;99774.50;5101766;28;20153;-75
2022/01/04 05:48:59;;;;;;;23.73;11.77;;;;;;;8.17;100.00;99764.03;5105560;28;20080;-76
2022/01/04 05:51:24;;;;;;;30.67;11.82;;;;;;;8.15;100.00;99760.50;5114009;28;20124;-76
2022/01/04 05:53:50;;;;;;;30.80;13.00;;;;;;;8.12;100.00;99755.22;5086857;28;20019;-76
2022/01/04 05:56:15;;;;;;;23.77;11.85;;;;;;;8.12;100.00;99760.47;5101891;28;20053;-75
2022/01/04 05:58:40;;;;;;;20.13;12.05;;;;;;;8.09;100.00;99751.69;5104504;28;20028;-75
2022/01/04 06:01:07;;;;;;;20.98;11.77;;;;;;;8.08;100.00;99755.22;5110068;28;20108;-75
2022/01/04 06:03:32;;;;;;;28.17;12.43;;;;;;;7.97;100.00;99748.97;5092874;28;20119;-75
2022/01/04 06:05:59;;;;;;;20.65;11.35;;;;;;;7.93;100.00;99745.47;5104378;28;20467;-76
2022/01/04 06:08:30;;;;;;;28.60;12.88;;;;;;;7.92;100.00;99740.19;5109683;28;20394;-75
2022/01/04 06:10:55;;;;;;;20.35;12.13;;;;;;;7.95;100.00;99748.09;5085143;28;20020;-76
2022/01/04 06:16:04;;;;;;;18.98;12.02;;;;;;;7.94;100.00;99739.34;5103663;28;20216;-75
2022/01/04 06:18:30;;;;;;;23.08;12.82;;;;;;;7.87;100.00;99739.28;5094306;28;20047;-75
2022/01/04 06:20:56;;;;;;;25.02;12.73;;;;;;;7.90;100.00;99749.78;5085907;28;20558;-75
2022/01/04 06:23:22;;;;;;;21.55;12.73;;;;;;;7.90;100.00;99749.78;5098801;28;20057;-75
2022/01/04 06:25:48;;;;;;;26.65;14.32;;;;;;;7.89;100.00;99750.66;5081901;28;20480;-76
2022/01/04 06:28:13;;;;;;;33.40;14.02;;;;;;;7.91;100.00;99741.09;5077156;28;20546;-76
2022/01/04 06:30:38;;;;;;;22.52;14.70;;;;;;;7.97;100.00;99735.88;5101774;28;20059;-75
2022/01/04 06:33:04;;;;;;;24.83;12.82;;;;;;;7.95;100.00;99719.28;5081371;28;20070;-76
2022/01/04 06:35:33;;;;;;;26.02;14.73;;;;;;;7.97;100.00;99720.16;5090499;28;20034;-76
2022/01/04 06:37:58;;;;;;;28.33;14.38;;;;;;;7.93;100.00;99713.13;5086814;28;20035;-75
2022/01/04 06:40:24;;;;;;;24.05;14.32;;;;;;;7.92;100.00;99701.78;5109789;28;20050;-76
2022/01/04 06:42:49;;;;;;;26.67;15.05;;;;;;;7.90;100.00;99694.78;5103926;28;20126;-75
2022/01/04 06:45:14;;;;;;;30.30;15.05;;;;;;;7.86;100.00;99691.25;5105994;28;20506;-75
2022/01/04 06:47:41;;;;;;;25.92;14.82;;;;;;;7.89;100.00;99698.25;5085712;28;20023;-75
2022/01/04 06:50:07;;;;;;;27.35;15.75;;;;;;;7.92;100.00;99701.78;5088803;28;20062;-76
2022/01/04 06:52:33;;;;;;;27.73;16.27;;;;;;;7.90;100.00;99705.25;5085227;28;20063;-76
2022/01/04 06:54:58;;;;;;;29.58;16.00;;;;;;;7.90;100.00;99708.75;5102901;28;20396;-75
2022/01/04 06:57:24;;;;;;;30.42;16.10;;;;;;;7.93;100.00;99706.19;5085534;28;20050;-75
2022/01/04 06:59:49;;;;;;;30.92;15.52;;;;;;;7.95;100.00;99695.72;5079490;28;20059;-75
2022/01/04 07:02:15;;;;;;;28.50;15.18;;;;;;;7.90;100.00;99681.69;5085447;28;20050;-75
2022/01/04 07:04:40;;;;;;;27.15;15.75;;;;;;;7.91;100.00;99684.31;5102982;28;20016;-75
2022/01/04 07:07:05;;;;;;;34.85;15.25;;;;;;;7.94;100.00;99678.22;5102170;28;20034;-75
2022/01/04 07:09:31;;;;;;;37.03;15.85;;;;;;;7.94;100.00;99678.22;5107072;28;20083;-76
2022/01/04 07:11:57;;;;;;;35.42;16.20;;;;;;;7.93;100.00;99672.13;5103703;28;20024;-75
2022/01/04 07:14:23;;;;;;;31.00;15.10;;;;;;;7.94;100.00;99662.53;5102957;28;20065;-76
2022/01/04 07:16:48;;;;;;;30.83;15.77;;;;;;;7.97;100.00;99667.78;5099983;28;20468;-76
2022/01/04 07:19:15;;;;;;;30.55;15.88;;;;;;;7.99;100.00;99670.41;5098809;28;20020;-76
2022/01/04 07:21:40;;;;;;;26.45;15.93;;;;;;;7.92;100.00;99670.38;5101767;28;20036;-76
2022/01/04 07:24:05;;;;;;;30.95;16.55;;;;;;;7.86;100.00;99678.16;5088963;28;20122;-74
2022/01/04 07:26:31;;;;;;;30.38;15.65;;;;;;;7.79;100.00;99688.59;5106088;28;20079;-74
2022/01/04 07:28:56;;;;;;;32.38;17.15;;;;;;;7.75;100.00;99685.91;5107566;28;20031;-74
2022/01/04 07:31:22;;;;;;;38.13;17.08;;;;;;;7.75;100.00;99675.44;5086243;28;20417;-73
2022/01/04 07:33:47;;;;;;;33.25;17.25;;;;;;;7.75;100.00;99677.19;5110592;28;20032;-73
2022/01/04 07:36:14;;;;;;;32.55;17.48;;;;;;;7.73;100.00;99686.75;5103427;28;20048;-72
2022/01/04 07:38:39;;;;;;;36.10;16.27;;;;;;;7.78;100.00;99686.81;5106870;28;20033;-72
2022/01/04 07:41:05;;;;;;;33.95;17.00;;;;;;;7.76;100.00;99685.06;5087394;28;20228;-73
2022/01/04 07:43:31;;;;;;;35.45;16.58;;;;;;;7.75;100.00;99683.28;5104909;28;20044;-73
2022/01/04 07:45:57;;;;;;;31.85;13.77;;;;;;;7.72;100.00;99677.19;5089238;28;20036;-72
2022/01/04 07:48:22;;;;;;;31.80;15.65;;;;;;;7.67;100.00;99684.97;5092857;28;20027;-73
2022/01/04 07:50:49;;;;;;;27.63;13.32;;;;;;;7.68;100.00;99676.25;5104891;28;20035;-73
2022/01/04 07:53:15;;;;;;;26.20;12.88;;;;;;;7.66;100.00;99688.44;5090437;28;20035;-73
2022/01/04 07:55:40;;;;;;;24.58;11.80;;;;;;;7.66;100.00;99687.56;5110474;28;20786;-73
2022/01/04 07:58:05;;;;;;;27.45;11.07;;;;;;;7.66;100.00;99682.34;5106936;28;20125;-73
2022/01/04 08:00:31;;;;;;;31.23;11.25;;;;;;;7.66;100.00;99693.69;5090243;28;20020;-72
2022/01/04 08:02:56;;;;;;;23.13;10.77;;;;;;;7.62;100.00;99684.03;5089131;28;20043;-72
2022/01/04 08:05:23;;;;;;;25.25;8.45;;;;;;;7.66;100.00;99685.81;5089864;28;20391;-71
2022/01/04 08:07:49;;;;;;;16.48;6.32;;;;;;;7.59;100.00;99690.13;5111160;28;20072;-72
2022/01/04 08:10:14;;;;;;;13.95;5.85;;;;;;;7.55;100.00;99690.09;5099880;28;20093;-72
2022/01/04 08:12:40;;;;;;;18.85;5.10;;;;;;;7.54;100.00;99688.31;5092306;28;20468;-72
2022/01/04 08:15:07;;;;;;;18.80;5.38;;;;;;;7.51;100.00;99683.06;5107163;28;20027;-73
2022/01/04 08:17:33;;;;;;;13.05;4.93;;;;;;;7.50;100.00;99689.16;5107127;28;20085;-72
2022/01/04 08:19:59;;;;;;;13.50;4.30;;;;;;;7.48;100.00;99689.16;5099232;28;20480;-74
2022/01/04 08:22:31;;;;;;;11.68;4.88;;;;;;;7.49;100.00;99695.25;5099931;28;20114;-73
2022/01/04 08:24:56;;;;;;;13.55;3.92;;;;;;;7.49;100.00;99695.25;5082731;28;20030;-71
2022/01/04 08:27:21;;;;;;;15.90;5.25;;;;;;;7.49;100.00;99706.63;5086285;27;20430;-76
2022/01/04 08:29:47;;;;;;;14.77;4.55;;;;;;;7.50;100.00;99713.63;5083784;28;20111;-77
2022/01/04 08:32:15;;;;;;;14.05;4.72;;;;;;;7.52;100.00;99713.63;5089518;28;20032;-77
2022/01/04 08:34:40;;;;;;;19.67;5.05;;;;;;;7.55;100.00;99716.25;5101911;28;20031;-77
2022/01/04 08:37:05;;;;;;;12.25;3.78;;;;;;;7.53;100.00;99734.56;5113347;27;20020;-78
2022/01/04 08:39:31;;;;;;;14.07;4.82;;;;;;;7.54;100.00;99736.34;5084673;28;20383;-77
2022/01/04 08:42:01;;;;;;;22.33;4.43;;;;;;;7.55;100.00;99737.22;5086547;28;20118;-77
2022/01/04 08:44:28;;;;;;;14.48;4.68;;;;;;;7.60;100.00;99730.28;5083059;28;20071;-77
2022/01/04 08:46:53;;;;;;;16.13;4.72;;;;;;;7.60;100.00;99751.22;5084697;28;20488;-78
2022/01/04 08:49:18;;;;;;;13.95;4.05;;;;;;;7.63;100.00;99750.38;5082300;28;20073;-78
2022/01/04 08:51:44;;;;;;;12.93;5.15;;;;;;;7.65;100.00;99738.19;5079562;28;20384;-78
2022/01/04 08:54:09;;;;;;;22.00;5.68;;;;;;;7.70;100.00;99736.50;5090626;28;20365;-78
2022/01/04 08:56:36;;;;;;;29.15;5.57;;;;;;;7.72;100.00;99738.25;5082433;28;20225;-77
2022/01/04 08:59:03;;;;;;;21.00;4.75;;;;;;;7.75;100.00;99730.44;5082761;28;20128;-73
2022/01/04 09:01:29;;;;;;;22.15;5.38;;;;;;;7.75;100.00;99735.66;5082430;28;20098;-75
2022/01/04 09:03:54;;;;;;;18.75;5.45;;;;;;;7.79;100.00;99731.34;5086256;28;20474;-73
2022/01/04 09:06:22;;;;;;;28.00;5.07;;;;;;;7.81;100.00;99729.59;5085115;28;20029;-72
2022/01/04 09:08:47;;;;;;;21.15;4.70;;;;;;;7.84;100.00;99713.06;5082550;28;20632;-72
2022/01/04 09:11:15;;;;;;;26.17;5.65;;;;;;;7.87;100.00;99718.34;5079646;28;20024;-72
2022/01/04 09:13:43;;;;;;;26.20;4.93;;;;;;;7.89;100.00;99721.84;5083687;28;20032;-72
2022/01/04 09:18:48;;;;;;;20.20;4.00;;;;;;;7.97;100.00;99728.03;5079290;28;20068;-75
2022/01/04 09:21:24;;;;;;;17.40;3.92;;;;;;;7.99;100.00;99721.06;5078743;28;20020;-75
2022/01/04 09:23:53;;;;;;;32.33;4.97;;;;;;;7.99;100.00;99723.69;5083580;28;20035;-76
2022/01/04 09:26:18;;;;;;;26.27;5.05;;;;;;;8.00;100.00;99733.28;5081389;28;20036;-75
2022/01/04 09:28:44;;;;;;;24.48;4.13;;;;;;;8.02;100.00;99730.69;5081382;28;20546;-75
2022/01/04 09:31:11;;;;;;;24.00;5.38;;;;;;;8.01;100.00;99721.94;5079534;28;20027;-75
2022/01/04 09:33:37;;;;;;;31.08;4.95;;;;;;;8.00;100.00;99735.03;5087254;28;20058;-75
2022/01/04 09:36:04;;;;;;;27.45;4.63;;;;;;;8.05;100.00;99730.72;5080201;28;20055;-75
2022/01/04 09:38:29;;;;;;;23.35;3.60;;;;;;;8.06;100.00;99730.72;5078281;28;20024;-75
2022/01/04 09:40:55;;;;;;;28.40;4.05;;;;;;;8.13;100.00;99733.41;5080924;28;20043;-75
2022/01/04 09:43:21;;;;;;;25.70;3.78;;;;;;;8.17;100.00;99729.94;5073279;28;20097;-76
2022/01/04 09:45:47;;;;;;;28.20;4.57;;;;;;;8.19;100.00;99736.06;5056393;28;20029;-76
2022/01/04 09:48:13;;;;;;;25.23;3.80;;;;;;;8.20;100.00;99737.84;5067988;28;20043;-76
2022/01/04 09:50:41;;;;;;;18.42;3.15;;;;;;;8.22;100.00;99731.75;5060488;28;20025;-76
2022/01/04 09:53:09;;;;;;;29.85;3.67;;;;;;;8.20;100.00;99735.22;5064864;28;20380;-76
2022/01/04 09:55:38;;;;;;;18.35;3.58;;;;;;;8.22;100.00;99739.59;5055306;28;20462;-76
2022/01/04 09:58:03;;;;;;;18.90;3.53;;;;;;;8.18;100.00;99744.78;5061304;28;20480;-75
2022/01/04 10:00:29;;;;;;;20.73;3.55;;;;;;;8.21;100.00;99739.59;5064800;28;20025;-75
2022/01/04 10:03:29;;;;;;;26.42;3.92;;;;;;;8.19;100.00;99743.94;5056103;28;20455;-75
2022/01/04 10:06:07;;;;;;;24.40;4.05;;;;;;;8.20;100.00;99737.84;5058661;28;20033;-75
2022/01/04 10:08:32;;;;;;;25.40;4.35;;;;;;;8.23;100.00;99740.47;5064886;28;20096;-75
2022/01/04 10:11:08;;;;;;;19.13;3.90;;;;;;;8.22;100.00;99736.09;5061381;28;20479;-75
2022/01/04 10:13:33;;;;;;;25.83;4.07;;;;;;;8.19;100.00;99730.81;5067213;28;20020;-75
2022/01/04 10:15:59;;;;;;;23.73;3.50;;;;;;;8.23;100.00;99735.22;5063623;28;20025;-75
2022/01/04 10:18:27;;;;;;;23.63;3.70;;;;;;;8.18;100.00;99729.06;5056386;28;20062;-75
2022/01/04 10:21:12;;;;;;;31.92;4.18;;;;;;;8.21;100.00;99731.72;5057576;28;20033;-75
2022/01/04 10:23:54;;;;;;;26.67;3.65;;;;;;;8.19;100.00;99726.50;5065676;28;20025;-75
2022/01/04 10:26:29;;;;;;;18.92;4.43;;;;;;;8.20;100.00;99722.97;5060810;28;20045;-76
2022/01/04 10:28:54;;;;;;;18.73;3.22;;;;;;;8.22;100.00;99720.38;5066021;28;20480;-75
2022/01/04 10:31:20;;;;;;;26.55;4.65;;;;;;;8.24;100.00;99723.88;5059903;28;20025;-76
2022/01/04 10:33:52;;;;;;;12.98;2.22;;;;;;;8.23;100.00;99724.75;5058364;28;20544;-76
2022/01/04 10:36:19;;;;;;;15.02;2.75;;;;;;;8.18;100.00;99731.69;5059332;28;20021;-75
2022/01/04 10:38:49;;;;;;;10.00;1.77;;;;;;;8.17;100.00;99724.72;5064671;28;20028;-75
2022/01/04 10:41:21;;;;;;;13.77;1.30;;;;;;;8.17;100.00;99732.56;5066403;28;20029;-75
2022/01/04 10:44:02;;;;;;;15.55;2.95;;;;;;;8.07;100.00;99737.72;5084871;28;20039;-75
2022/01/04 10:46:32;;;;;;;7.90;1.30;;;;;;;8.04;100.00;99744.66;5092907;28;20110;-75
2022/01/04 10:48:57;;;;;;;5.95;1.25;;;;;;;7.97;100.00;99737.63;5100131;28;20023;-75
2022/01/04 10:51:23;;;;;;;8.27;1.52;;;;;;;7.93;100.00;99742.84;5100306;28;20028;-75
2022/01/04 10:53:54;;;;;;;8.55;1.90;;;;;;;7.87;100.00;99739.28;5104455;28;20023;-75
2022/01/04 10:56:27;;;;;;;7.00;1.30;;;;;;;7.79;100.00;99735.72;5100185;28;20035;-75
2022/01/04 10:58:56;;;;;;;8.25;1.13;;;;;;;7.76;100.00;99752.28;5095033;28;20035;-74
2022/01/04 11:01:26;;;;;;;11.68;1.23;;;;;;;7.72;100.00;99756.59;5078679;28;20072;-75
2022/01/04 11:03:55;;;;;;;5.75;0.90;;;;;;;7.72;100.00;99756.59;5083569;28;20027;-75
2022/01/04 11:06:24;;;;;;;7.70;1.10;;;;;;;7.75;100.00;99756.63;5097113;28;20495;-75
2022/01/04 11:08:50;;;;;;;4.30;0.98;;;;;;;7.79;100.00;99761.91;5097640;28;20024;-75
2022/01/04 11:11:15;;;;;;;3.38;0.80;;;;;;;7.80;100.00;99761.03;5100166;28;20046;-74
2022/01/04 11:13:41;;;;;;;8.02;1.15;;;;;;;7.83;100.00;99761.09;5076831;28;20043;-75
2022/01/04 11:16:07;;;;;;;9.52;0.82;;;;;;;7.84;100.00;99766.34;5096249;28;20027;-75
2022/01/04 11:18:33;;;;;;;6.18;1.27;;;;;;;7.86;100.00;99768.97;5077923;28;20035;-75
2022/01/04 11:21:00;;;;;;;13.02;1.23;;;;;;;7.87;100.00;99770.72;5076586;28;20115;-75
2022/01/04 11:23:31;;;;;;;6.97;1.23;;;;;;;7.89;100.00;99774.22;5099728;28;20081;-75